createdAt,value
2023-01-22T00:01:22.101Z,-0.28
2023-01-22T00:03:50.517Z,-0.29
2023-01-22T00:06:18.348Z,-0.29
2023-01-22T00:08:46.205Z,-0.27
2023-01-22T00:11:14.012Z,-0.29
2023-01-22T00:13:42.020Z,-0.28
2023-01-22T00:16:10.193Z,-0.29
2023-01-22T00:18:38.149Z,-0.31
2023-01-22T00:21:11.163Z,-0.28
2023-01-22T00:23:39.837Z,-0.25
2023-01-22T00:26:12.159Z,-0.24
2023-01-22T00:28:40.278Z,-0.24
2023-01-22T00:31:08.328Z,-0.28
2023-01-22T00:33:36.302Z,-0.33
2023-01-22T00:36:23.037Z,-0.36
2023-01-22T00:38:51.338Z,-0.42
2023-01-22T00:41:19.971Z,-0.41
2023-01-22T00:43:47.806Z,-0.44
2023-01-22T00:46:16.836Z,-0.43
2023-01-22T00:48:46.508Z,-0.42
2023-01-22T00:51:15.906Z,-0.40
2023-01-22T00:53:44.957Z,-0.38
2023-01-22T00:56:13.496Z,-0.39
2023-01-22T00:58:41.393Z,-0.37
2023-01-22T01:01:09.401Z,-0.36
2023-01-22T01:03:38.781Z,-0.38
2023-01-22T01:06:09.417Z,-0.39
2023-01-22T01:08:44.615Z,-0.39
2023-01-22T01:11:26.420Z,-0.38
2023-01-22T01:13:54.636Z,-0.39
2023-01-22T01:16:25.110Z,-0.40
2023-01-22T01:18:53.124Z,-0.40
2023-01-22T01:21:21.001Z,-0.41
2023-01-22T01:23:48.802Z,-0.36
2023-01-22T01:26:21.296Z,-0.36
2023-01-22T01:28:49.253Z,-0.33
2023-01-22T01:31:17.764Z,-0.33
2023-01-22T01:33:45.952Z,-0.34
2023-01-22T01:36:30.579Z,-0.34
2023-01-22T01:39:04.309Z,-0.47
2023-01-22T01:41:37.962Z,-0.48
2023-01-22T01:44:16.880Z,-0.46
2023-01-22T01:46:52.877Z,-0.45
2023-01-22T01:49:28.424Z,-0.42
2023-01-22T01:51:57.491Z,-0.44
2023-01-22T01:54:25.259Z,-0.43
2023-01-22T01:56:55.377Z,-0.43
2023-01-22T01:59:23.328Z,-0.37
2023-01-22T02:01:55.061Z,-0.37
2023-01-22T02:04:27.523Z,-0.34
2023-01-22T02:06:55.849Z,-0.31
2023-01-22T02:09:26.166Z,-0.31
2023-01-22T02:11:54.038Z,-0.29
2023-01-22T02:14:24.512Z,-0.28
2023-01-22T02:17:22.386Z,-0.28
2023-01-22T02:19:50.242Z,-0.30
2023-01-22T02:22:30.985Z,-0.30
2023-01-22T02:24:59.093Z,-0.32
2023-01-22T02:27:26.918Z,-0.32
2023-01-22T02:29:54.730Z,-0.32
2023-01-22T02:32:23.183Z,-0.33
2023-01-22T02:34:50.991Z,-0.31
2023-01-22T02:37:18.872Z,-0.31
2023-01-22T02:39:46.662Z,-0.30
2023-01-22T02:42:14.664Z,-0.26
2023-01-22T02:44:42.533Z,-0.27
2023-01-22T02:47:10.520Z,-0.28
2023-01-22T02:49:38.473Z,-0.28
2023-01-22T02:52:06.503Z,-0.28
2023-01-22T02:54:34.404Z,-0.28
2023-01-22T02:57:02.275Z,-0.28
2023-01-22T02:59:30.521Z,-0.31
2023-01-22T03:01:58.479Z,-0.30
2023-01-22T03:04:27.083Z,-0.29
2023-01-22T03:06:55.294Z,-0.27
2023-01-22T03:09:23.064Z,-0.26
2023-01-22T03:11:50.940Z,-0.26
2023-01-22T03:14:37.195Z,-0.28
2023-01-22T03:17:23.588Z,-0.25
2023-01-22T03:20:09.990Z,-0.23
2023-01-22T03:22:37.819Z,-0.26
2023-01-22T03:25:05.974Z,-0.25
2023-01-22T03:27:33.917Z,-0.26
2023-01-22T03:30:01.909Z,-0.27
2023-01-22T03:32:34.343Z,-0.27
2023-01-22T03:35:02.957Z,-0.26
2023-01-22T03:37:30.802Z,-0.22
2023-01-22T03:39:59.094Z,-0.24
2023-01-22T03:42:26.938Z,-0.25
2023-01-22T03:44:54.717Z,-0.22
2023-01-22T03:47:22.597Z,-0.19
2023-01-22T03:49:50.456Z,-0.19
2023-01-22T03:52:18.680Z,-0.18
2023-01-22T03:54:50.713Z,-0.16
2023-01-22T03:57:18.468Z,-0.17
2023-01-22T03:59:46.336Z,-0.16
2023-01-22T04:02:14.314Z,-0.18
2023-01-22T04:04:42.167Z,-0.18
2023-01-22T04:07:10.097Z,-0.17
2023-01-22T04:09:37.957Z,-0.14
2023-01-22T04:12:05.946Z,-0.15
2023-01-22T04:14:33.740Z,-0.16
2023-01-22T04:17:01.486Z,-0.16
2023-01-22T04:19:29.383Z,-0.19
2023-01-22T04:21:57.248Z,-0.18
2023-01-22T04:24:25.188Z,-0.14
2023-01-22T04:26:53.958Z,-0.14
2023-01-22T04:29:21.833Z,-0.14
2023-01-22T04:31:50.889Z,-0.13
2023-01-22T04:34:18.735Z,-0.14
2023-01-22T04:36:46.585Z,-0.12
2023-01-22T04:39:14.492Z,-0.10
2023-01-22T04:41:42.394Z,-0.09
2023-01-22T04:44:10.374Z,-0.08
2023-01-22T04:46:38.107Z,-0.09
2023-01-22T04:49:06.008Z,-0.06
2023-01-22T04:51:33.874Z,-0.05
2023-01-22T04:54:01.769Z,-0.03
2023-01-22T04:56:29.587Z,-0.01
2023-01-22T04:58:57.432Z,0.01
2023-01-22T05:01:25.317Z,-0.01
2023-01-22T05:03:53.144Z,0.02
2023-01-22T05:06:20.956Z,0.04
2023-01-22T05:08:48.955Z,0.03
2023-01-22T05:11:16.821Z,0.04
2023-01-22T05:13:44.571Z,0.08
2023-01-22T05:16:12.501Z,0.09
2023-01-22T05:18:40.449Z,0.07
2023-01-22T05:21:08.459Z,0.10
2023-01-22T05:23:36.294Z,0.10
2023-01-22T05:26:04.258Z,0.12
2023-01-22T05:28:32.207Z,0.09
2023-01-22T05:31:00.068Z,0.10
2023-01-22T05:33:30.915Z,0.08
2023-01-22T05:35:59.589Z,0.11
2023-01-22T05:38:27.784Z,0.08
2023-01-22T05:40:55.655Z,0.10
2023-01-22T05:43:23.560Z,0.12
2023-01-22T05:45:51.472Z,0.12
2023-01-22T05:48:19.487Z,0.13
2023-01-22T05:50:47.490Z,0.14
2023-01-22T05:53:15.364Z,0.11
2023-01-22T05:55:43.215Z,0.11
2023-01-22T05:58:10.971Z,0.08
2023-01-22T06:00:39.929Z,0.07
2023-01-22T06:03:07.859Z,0.07
2023-01-22T06:05:35.793Z,0.08
2023-01-22T06:08:03.703Z,0.11
2023-01-22T06:10:31.530Z,0.12
2023-01-22T06:12:59.832Z,0.10
2023-01-22T06:15:27.702Z,0.11
2023-01-22T06:17:55.684Z,0.09
2023-01-22T06:20:23.575Z,0.07
2023-01-22T06:22:52.565Z,0.08
2023-01-22T06:25:20.435Z,0.07
2023-01-22T06:27:48.333Z,0.04
2023-01-22T06:30:16.614Z,0.02
2023-01-22T06:32:44.680Z,0.00
2023-01-22T06:35:12.500Z,-0.05
2023-01-22T06:37:40.390Z,-0.07
2023-01-22T06:40:08.986Z,-0.09
2023-01-22T06:42:38.442Z,-0.10
2023-01-22T06:45:06.986Z,-0.12
2023-01-22T06:47:34.872Z,-0.13
2023-01-22T06:50:02.731Z,-0.12
2023-01-22T06:52:30.516Z,-0.08
2023-01-22T06:54:58.353Z,-0.08
2023-01-22T06:57:26.307Z,-0.05
2023-01-22T06:59:54.449Z,-0.07
2023-01-22T07:02:22.423Z,-0.05
2023-01-22T07:04:50.377Z,-0.07
2023-01-22T07:07:18.288Z,-0.07
2023-01-22T07:09:46.070Z,-0.06
2023-01-22T07:12:13.898Z,-0.06
2023-01-22T07:14:41.672Z,-0.03
2023-01-22T07:17:10.671Z,-0.02
2023-01-22T07:19:38.638Z,-0.02
2023-01-22T07:22:06.780Z,-0.02
2023-01-22T07:24:34.582Z,-0.01
2023-01-22T07:27:03.390Z,-0.01
2023-01-22T07:29:31.258Z,0.01
2023-01-22T07:31:59.116Z,0.03
2023-01-22T07:34:26.945Z,0.04
2023-01-22T07:36:54.983Z,0.08
2023-01-22T07:39:22.773Z,0.10
2023-01-22T07:41:50.679Z,0.15
2023-01-22T07:44:18.663Z,0.14
2023-01-22T07:46:46.503Z,0.18
2023-01-22T07:49:14.563Z,0.22
2023-01-22T07:51:42.358Z,0.25
2023-01-22T07:54:10.287Z,0.30
2023-01-22T07:56:38.145Z,0.32
2023-01-22T07:59:07.084Z,0.37
2023-01-22T08:01:35.156Z,0.43
2023-01-22T08:04:03.265Z,0.49
2023-01-22T08:06:31.286Z,0.53
2023-01-22T08:09:00.577Z,0.55
2023-01-22T08:11:29.078Z,0.58
2023-01-22T08:13:56.941Z,0.66
2023-01-22T08:16:24.968Z,0.67
2023-01-22T08:18:52.890Z,0.71
2023-01-22T08:21:25.396Z,0.74
2023-01-22T08:23:53.461Z,0.77
2023-01-22T08:26:21.331Z,0.79
2023-01-22T08:28:49.205Z,0.78
2023-01-22T08:31:27.308Z,0.78
2023-01-22T08:33:56.338Z,0.80
2023-01-22T08:36:24.160Z,0.77
2023-01-22T08:38:51.964Z,0.76
2023-01-22T08:41:19.735Z,0.77
2023-01-22T08:43:47.613Z,0.78
2023-01-22T08:46:15.663Z,0.79
2023-01-22T08:48:45.283Z,0.77
2023-01-22T08:51:13.698Z,0.78
2023-01-22T08:53:41.551Z,0.76
2023-01-22T08:56:09.532Z,0.81
2023-01-22T08:58:37.345Z,0.82
2023-01-22T09:01:05.338Z,0.81
2023-01-22T09:03:33.111Z,0.83
2023-01-22T09:06:00.968Z,0.86
2023-01-22T09:08:28.926Z,0.85
2023-01-22T09:10:56.763Z,0.84
2023-01-22T09:13:24.611Z,0.89
2023-01-22T09:15:52.413Z,0.94
2023-01-22T09:18:20.305Z,0.96
2023-01-22T09:20:48.126Z,0.96
2023-01-22T09:23:16.035Z,0.96
2023-01-22T09:25:43.819Z,0.97
2023-01-22T09:28:13.433Z,0.98
2023-01-22T09:30:43.055Z,1.00
2023-01-22T09:33:11.155Z,1.03
2023-01-22T09:35:38.999Z,1.06
2023-01-22T09:38:06.971Z,1.06
2023-01-22T09:40:49.643Z,1.09
2023-01-22T09:43:27.005Z,1.08
2023-01-22T09:45:57.887Z,1.12
2023-01-22T09:48:36.079Z,1.11
2023-01-22T09:51:03.969Z,1.13
2023-01-22T09:53:31.787Z,1.11
2023-01-22T09:55:59.568Z,1.12
2023-01-22T09:58:30.514Z,1.17
2023-01-22T10:01:00.972Z,1.16
2023-01-22T10:03:39.300Z,1.21
2023-01-22T10:06:09.961Z,1.19
2023-01-22T10:08:56.249Z,1.20
2023-01-22T10:11:24.124Z,1.12
2023-01-22T10:13:55.540Z,1.11
2023-01-22T10:16:23.472Z,1.10
2023-01-22T10:18:51.275Z,1.05
2023-01-22T10:21:26.733Z,1.06
2023-01-22T10:23:57.234Z,1.11
2023-01-22T10:26:41.261Z,1.13
2023-01-22T10:29:33.833Z,1.09
2023-01-22T10:32:03.154Z,1.03
2023-01-22T10:34:34.821Z,1.02
2023-01-22T10:37:04.976Z,1.43
2023-01-22T10:39:46.699Z,2.54
2023-01-22T10:42:26.920Z,2.95
2023-01-22T10:44:59.821Z,3.25
2023-01-22T10:47:28.787Z,3.15
2023-01-22T10:50:08.019Z,2.63
2023-01-22T10:52:40.115Z,2.18
2023-01-22T10:55:09.529Z,1.94
2023-01-22T10:57:37.499Z,1.79
2023-01-22T11:00:17.044Z,1.74
2023-01-22T11:02:47.149Z,1.65
2023-01-22T11:05:23.103Z,1.52
2023-01-22T11:07:55.796Z,1.43
2023-01-22T11:10:36.210Z,1.41
2023-01-22T11:13:23.202Z,1.33
2023-01-22T11:16:21.149Z,1.28
2023-01-22T11:19:04.460Z,1.24
2023-01-22T11:21:41.047Z,1.29
2023-01-22T11:24:17.978Z,1.22
2023-01-22T11:27:00.838Z,1.14
2023-01-22T11:29:49.574Z,1.06
2023-01-22T11:32:45.069Z,1.05
2023-01-22T11:35:21.895Z,1.07
2023-01-22T11:38:04.849Z,1.08
2023-01-22T11:40:34.533Z,1.09
2023-01-22T11:43:31.403Z,1.06
2023-01-22T11:46:14.579Z,1.05
2023-01-22T11:49:04.308Z,0.96
2023-01-22T11:51:55.367Z,1.00
2023-01-22T11:54:32.317Z,1.02
2023-01-22T11:57:02.719Z,1.04
2023-01-22T11:59:57.911Z,1.03
2023-01-22T12:02:44.509Z,0.99
2023-01-22T12:05:38.833Z,1.03
2023-01-22T12:08:21.939Z,1.02
2023-01-22T12:11:01.578Z,1.05
2023-01-22T12:13:52.565Z,1.03
2023-01-22T12:16:31.080Z,1.00
2023-01-22T12:19:29.813Z,0.99
2023-01-22T12:21:59.322Z,0.96
2023-01-22T12:24:34.550Z,1.01
2023-01-22T12:27:12.571Z,0.91
2023-01-22T12:29:43.061Z,0.97
2023-01-22T12:32:13.753Z,1.03
2023-01-22T12:35:08.997Z,1.05
2023-01-22T12:38:24.447Z,1.01
2023-01-22T12:41:19.572Z,1.05
2023-01-22T12:44:19.015Z,1.04
2023-01-22T12:47:08.782Z,1.04
2023-01-22T12:49:49.691Z,1.05
2023-01-22T12:52:34.201Z,1.10
2023-01-22T12:55:02.627Z,1.11
2023-01-22T12:57:41.370Z,1.15
2023-01-22T13:00:14.828Z,1.18
2023-01-22T13:02:42.787Z,1.21
2023-01-22T13:05:21.388Z,1.19
2023-01-22T13:07:49.614Z,1.23
2023-01-22T13:10:26.143Z,1.20
2023-01-22T13:12:55.542Z,1.24
2023-01-22T13:15:32.032Z,1.26
2023-01-22T13:18:07.458Z,1.28
2023-01-22T13:20:54.390Z,1.28
2023-01-22T13:23:22.319Z,1.27
2023-01-22T13:25:57.415Z,1.27
2023-01-22T13:28:25.631Z,1.30
2023-01-22T13:31:01.460Z,1.30
2023-01-22T13:33:29.588Z,1.30
2023-01-22T13:35:57.817Z,1.35
2023-01-22T13:38:26.711Z,1.32
2023-01-22T13:41:05.347Z,1.35
2023-01-22T13:43:33.144Z,1.32
2023-01-22T13:46:02.190Z,1.34
2023-01-22T13:48:30.180Z,1.36
2023-01-22T13:51:03.413Z,1.34
2023-01-22T13:53:45.423Z,1.25
2023-01-22T13:56:20.540Z,1.28
2023-01-22T13:58:49.489Z,1.29
2023-01-22T14:01:32.009Z,1.30
2023-01-22T14:04:04.309Z,1.33
2023-01-22T14:06:32.340Z,1.36
2023-01-22T14:09:00.691Z,1.40
2023-01-22T14:11:39.359Z,1.41
2023-01-22T14:14:19.416Z,1.42
2023-01-22T14:16:47.514Z,1.42
2023-01-22T14:19:15.565Z,1.42
2023-01-22T14:21:43.818Z,1.47
2023-01-22T14:24:11.642Z,1.48
2023-01-22T14:26:39.477Z,1.48
2023-01-22T14:29:07.947Z,1.49
2023-01-22T14:31:36.025Z,1.47
2023-01-22T14:34:03.893Z,1.48
2023-01-22T14:36:37.949Z,1.46
2023-01-22T14:39:06.824Z,1.42
2023-01-22T14:41:34.801Z,1.43
2023-01-22T14:44:04.345Z,1.38
2023-01-22T14:46:32.609Z,1.39
2023-01-22T14:49:03.027Z,1.38
2023-01-22T14:51:30.977Z,1.40
2023-01-22T14:54:00.117Z,1.39
2023-01-22T14:56:30.814Z,1.40
2023-01-22T14:58:58.706Z,1.39
2023-01-22T15:01:26.489Z,1.41
2023-01-22T15:03:55.384Z,1.38
2023-01-22T15:06:25.073Z,1.32
2023-01-22T15:08:53.167Z,1.33
2023-01-22T15:11:21.225Z,1.33
2023-01-22T15:13:56.714Z,1.27
2023-01-22T15:16:24.567Z,1.28
2023-01-22T15:18:58.075Z,1.28
2023-01-22T15:21:25.971Z,1.25
2023-01-22T15:23:58.809Z,1.27
2023-01-22T15:26:33.784Z,1.26
2023-01-22T15:29:01.777Z,1.24
2023-01-22T15:31:30.753Z,1.23
2023-01-22T15:34:03.170Z,1.25
2023-01-22T15:36:31.600Z,1.23
2023-01-22T15:39:02.226Z,1.22
2023-01-22T15:41:32.666Z,1.15
2023-01-22T15:44:04.249Z,1.12
2023-01-22T15:46:39.572Z,1.10
2023-01-22T15:49:11.525Z,1.09
2023-01-22T15:51:39.364Z,1.08
2023-01-22T15:54:08.053Z,1.05
2023-01-22T15:56:37.920Z,1.02
2023-01-22T15:59:06.107Z,1.06
2023-01-22T16:01:34.105Z,1.06
2023-01-22T16:04:05.522Z,1.09
2023-01-22T16:06:35.035Z,1.08
2023-01-22T16:09:03.467Z,1.09
2023-01-22T16:11:37.091Z,1.06
2023-01-22T16:14:05.354Z,1.08
2023-01-22T16:16:41.878Z,1.09
2023-01-22T16:19:14.328Z,1.06
2023-01-22T16:21:42.479Z,1.09
2023-01-22T16:24:15.112Z,1.09
2023-01-22T16:26:42.968Z,1.15
2023-01-22T16:29:11.236Z,1.12
2023-01-22T16:31:39.384Z,1.12
2023-01-22T16:34:12.202Z,1.13
2023-01-22T16:36:40.807Z,1.14
2023-01-22T16:39:08.830Z,1.14
2023-01-22T16:41:41.482Z,1.12
2023-01-22T16:44:11.210Z,1.12
2023-01-22T16:46:51.440Z,1.11
2023-01-22T16:49:21.196Z,1.08
2023-01-22T16:51:55.272Z,1.07
2023-01-22T16:54:32.916Z,1.10
2023-01-22T16:57:04.579Z,1.04
2023-01-22T16:59:33.025Z,1.06
2023-01-22T17:02:02.362Z,1.08
2023-01-22T17:04:34.940Z,1.06
2023-01-22T17:07:05.801Z,1.08
2023-01-22T17:09:34.741Z,1.08
2023-01-22T17:12:06.312Z,1.05
2023-01-22T17:14:37.565Z,1.05
2023-01-22T17:17:06.849Z,1.06
2023-01-22T17:19:34.650Z,1.05
2023-01-22T17:22:03.101Z,1.06
2023-01-22T17:24:31.347Z,1.05
2023-01-22T17:26:59.426Z,1.04
2023-01-22T17:29:27.336Z,1.07
2023-01-22T17:31:55.993Z,1.07
2023-01-22T17:34:24.511Z,1.05
2023-01-22T17:36:52.330Z,1.08
2023-01-22T17:39:21.272Z,1.04
2023-01-22T17:41:49.156Z,1.02
2023-01-22T17:44:17.191Z,1.00
2023-01-22T17:46:45.224Z,0.94
2023-01-22T17:49:13.137Z,0.93
2023-01-22T17:51:41.173Z,0.92
2023-01-22T17:54:09.503Z,0.89
2023-01-22T17:56:41.277Z,0.86
2023-01-22T17:59:09.103Z,0.90
2023-01-22T18:01:37.822Z,0.87
2023-01-22T18:04:07.619Z,0.88
2023-01-22T18:06:35.794Z,0.90
2023-01-22T18:09:04.219Z,0.87
2023-01-22T18:11:32.387Z,0.88
2023-01-22T18:14:01.705Z,0.85
2023-01-22T18:16:30.796Z,0.82
2023-01-22T18:19:00.148Z,0.79
2023-01-22T18:21:28.172Z,0.83
2023-01-22T18:23:56.083Z,0.82
2023-01-22T18:26:33.256Z,0.83
2023-01-22T18:29:01.230Z,0.83
2023-01-22T18:31:34.026Z,0.86
2023-01-22T18:34:03.546Z,0.85
2023-01-22T18:36:35.081Z,0.83
2023-01-22T18:39:08.079Z,0.82
2023-01-22T18:41:36.751Z,0.85
2023-01-22T18:44:04.835Z,0.89
2023-01-22T18:46:42.499Z,0.88
2023-01-22T18:49:14.129Z,0.85
2023-01-22T18:51:43.624Z,0.85
2023-01-22T18:54:12.364Z,0.84
2023-01-22T18:56:40.559Z,0.81
2023-01-22T18:59:14.178Z,0.84
2023-01-22T19:01:52.789Z,0.86
2023-01-22T19:04:23.018Z,0.87
2023-01-22T19:06:53.184Z,0.87
2023-01-22T19:09:21.320Z,0.88
2023-01-22T19:11:49.709Z,0.87
2023-01-22T19:14:19.422Z,0.87
2023-01-22T19:16:51.437Z,0.88
2023-01-22T19:19:20.549Z,0.88
2023-01-22T19:21:49.461Z,0.88
2023-01-22T19:24:21.479Z,0.86
2023-01-22T19:26:51.281Z,0.86
2023-01-22T19:29:19.620Z,0.85
2023-01-22T19:31:52.687Z,0.82
2023-01-22T19:34:25.121Z,0.85
2023-01-22T19:36:54.828Z,0.85
2023-01-22T19:39:24.485Z,0.86
2023-01-22T19:41:52.437Z,0.88
2023-01-22T19:44:20.307Z,0.88
2023-01-22T19:46:48.234Z,0.90
2023-01-22T19:49:21.233Z,0.91
2023-01-22T19:51:49.434Z,0.89
2023-01-22T19:54:17.333Z,0.92
2023-01-22T19:56:45.835Z,0.91
2023-01-22T19:59:18.909Z,0.94
2023-01-22T20:01:51.353Z,0.95
2023-01-22T20:04:26.995Z,0.97
2023-01-22T20:06:59.661Z,0.95
2023-01-22T20:09:27.829Z,0.96
2023-01-22T20:11:56.800Z,0.97
2023-01-22T20:14:26.479Z,0.95
2023-01-22T20:16:55.734Z,0.97
2023-01-22T20:19:23.766Z,0.97
2023-01-22T20:21:52.796Z,0.98
2023-01-22T20:24:21.676Z,0.94
2023-01-22T20:26:49.471Z,0.95
2023-01-22T20:29:17.623Z,0.97
2023-01-22T20:31:46.159Z,0.98
2023-01-22T20:34:14.228Z,0.97
2023-01-22T20:36:46.814Z,0.97
2023-01-22T20:39:17.574Z,0.98
2023-01-22T20:41:46.945Z,1.00
2023-01-22T20:44:15.282Z,1.01
2023-01-22T20:46:45.532Z,0.98
2023-01-22T20:49:14.619Z,1.00
2023-01-22T20:51:43.452Z,1.01
2023-01-22T20:54:11.439Z,0.98
2023-01-22T20:56:39.769Z,0.98
2023-01-22T20:59:09.503Z,1.00
2023-01-22T21:01:37.576Z,0.99
2023-01-22T21:04:06.012Z,1.00
2023-01-22T21:06:34.901Z,1.03
2023-01-22T21:09:03.688Z,1.01
2023-01-22T21:11:32.527Z,1.02
2023-01-22T21:14:00.943Z,0.99
2023-01-22T21:16:33.330Z,0.99
2023-01-22T21:19:09.395Z,1.00
2023-01-22T21:21:37.293Z,1.00
2023-01-22T21:24:05.425Z,0.99
2023-01-22T21:26:33.614Z,0.98
2023-01-22T21:29:07.014Z,0.97
2023-01-22T21:31:35.295Z,0.95
2023-01-22T21:34:04.653Z,0.96
2023-01-22T21:36:39.223Z,0.95
2023-01-22T21:39:08.548Z,0.97
2023-01-22T21:41:36.638Z,0.96
2023-01-22T21:44:23.047Z,0.97
2023-01-22T21:46:50.930Z,0.97
2023-01-22T21:49:23.750Z,0.96
2023-01-22T21:51:56.717Z,0.95
2023-01-22T21:54:27.050Z,0.96
2023-01-22T21:56:55.202Z,0.98
2023-01-22T21:59:23.087Z,0.94
2023-01-22T22:01:55.559Z,0.91
2023-01-22T22:04:25.166Z,0.90
2023-01-22T22:06:53.405Z,0.93
2023-01-22T22:09:23.234Z,0.91
2023-01-22T22:11:51.112Z,0.93
2023-01-22T22:14:24.033Z,0.90
2023-01-22T22:16:52.193Z,0.90
2023-01-22T22:19:20.176Z,0.91
2023-01-22T22:21:48.236Z,0.93
2023-01-22T22:24:16.709Z,0.95
2023-01-22T22:26:44.522Z,0.93
2023-01-22T22:29:12.304Z,0.94
2023-01-22T22:31:40.847Z,0.94
2023-01-22T22:34:08.705Z,0.96
2023-01-22T22:36:36.488Z,0.94
2023-01-22T22:39:04.518Z,0.94
2023-01-22T22:41:33.626Z,0.91
2023-01-22T22:44:01.551Z,0.89
2023-01-22T22:46:30.923Z,0.92
2023-01-22T22:48:59.657Z,0.91
2023-01-22T22:51:31.041Z,0.87
2023-01-22T22:54:00.272Z,0.91
2023-01-22T22:56:28.614Z,0.93
2023-01-22T22:58:56.767Z,0.94
2023-01-22T23:01:25.259Z,0.95
2023-01-22T23:03:54.671Z,0.97
2023-01-22T23:06:24.929Z,0.99
2023-01-22T23:08:54.381Z,1.00
2023-01-22T23:11:28.080Z,1.01
2023-01-22T23:13:55.944Z,1.02
2023-01-22T23:16:23.955Z,1.02
2023-01-22T23:18:52.678Z,0.98
2023-01-22T23:21:24.790Z,0.97
2023-01-22T23:23:53.475Z,0.95
2023-01-22T23:26:29.425Z,0.95
2023-01-22T23:28:59.008Z,0.95
2023-01-22T23:31:27.339Z,0.94
2023-01-22T23:33:56.443Z,0.90
2023-01-22T23:36:24.539Z,0.90
2023-01-22T23:38:52.442Z,0.91
2023-01-22T23:41:20.807Z,0.93
2023-01-22T23:43:48.689Z,0.93
2023-01-22T23:46:20.600Z,0.92
2023-01-22T23:48:48.430Z,0.93
2023-01-22T23:51:16.405Z,0.93
2023-01-22T23:53:46.020Z,0.94
2023-01-22T23:56:13.847Z,0.94
2023-01-22T23:58:42.063Z,0.94
